Time;durP1;ratioP1;P1;durP2;ratioP2;P2;SDS_P1;SDS_P2;PMS_P1;PMS_P2;Temp;Humidity;BMP_temperature;BMP_pressure;BME280_temperature;BME280_humidity;BME280_pressure;Samples;Min_cycle;Max_cycle;Signal;HPM_P1;HPM_P2
2023/01/22 00:01:31;;;;;;;27.95;13.45;;;-1.30;99.90;;;;;;4982218;28;20050;-81
2023/01/22 00:03:57;;;;;;;23.63;13.07;;;-0.50;99.90;;;;;;4998861;28;20038;-81
2023/01/22 00:06:22;;;;;;;31.00;13.90;;;-1.00;99.90;;;;;;4998732;28;20037;-82
2023/01/22 00:08:48;;;;;;;29.58;14.38;;;-1.10;99.90;;;;;;5016110;28;20046;-81
2023/01/22 00:11:15;;;;;;;21.90;12.48;;;-1.10;99.90;;;;;;4998727;28;20100;-82
2023/01/22 00:13:42;;;;;;;32.63;15.30;;;-1.00;99.90;;;;;;5016082;28;20065;-82
2023/01/22 00:16:12;;;;;;;28.25;13.63;;;-1.00;99.90;;;;;;5015914;28;20475;-82
2023/01/22 00:18:37;;;;;;;27.23;14.07;;;-1.10;99.90;;;;;;4998312;28;20067;-82
2023/01/22 00:21:03;;;;;;;23.33;11.63;;;-1.10;99.90;;;;;;4998377;28;20065;-82
2023/01/22 00:23:28;;;;;;;27.98;14.48;;;-1.10;99.90;;;;;;4998453;28;20074;-81
2023/01/22 00:26:10;;;;;;;29.30;13.95;;;-1.10;99.90;;;;;;4998563;28;20132;-82
2023/01/22 00:28:37;;;;;;;31.63;14.57;;;-1.10;99.90;;;;;;5015665;28;20052;-83
2023/01/22 00:31:05;;;;;;;34.17;13.80;;;-1.10;99.90;;;;;;4998587;28;20049;-81
2023/01/22 00:33:31;;;;;;;28.63;14.05;;;-1.10;99.90;;;;;;4998557;28;20165;-81
2023/01/22 00:36:04;;;;;;;30.50;14.27;;;-1.10;99.90;;;;;;4998333;28;20050;-82
2023/01/22 00:38:30;;;;;;;27.15;14.25;;;-1.20;99.90;;;;;;4999851;28;20490;-82
2023/01/22 00:41:00;;;;;;;34.15;13.73;;;-1.20;99.90;;;;;;5017773;28;20128;-82
2023/01/22 00:43:26;;;;;;;28.67;14.18;;;-1.20;99.90;;;;;;5018066;28;20042;-81
2023/01/22 00:45:52;;;;;;;31.95;14.68;;;-0.40;99.90;;;;;;5035062;28;20124;-82
2023/01/22 00:48:17;;;;;;;26.55;13.82;;;-1.10;99.90;;;;;;5017597;28;20052;-82
2023/01/22 00:50:43;;;;;;;31.83;13.95;;;-0.20;99.90;;;;;;5017747;28;20045;-81
2023/01/22 00:53:08;;;;;;;33.20;14.43;;;-1.40;99.90;;;;;;5034134;28;20104;-83
2023/01/22 00:55:34;;;;;;;31.95;15.02;;;-1.30;99.90;;;;;;5017382;28;20175;-81
2023/01/22 00:58:00;;;;;;;32.00;14.18;;;-1.20;99.90;;;;;;5017553;28;20052;-81
2023/01/22 01:00:25;;;;;;;33.55;15.02;;;-1.00;99.90;;;;;;5017697;28;20091;-81
2023/01/22 01:05:35;;;;;;;32.17;15.23;;;-1.40;99.90;;;;;;5034869;28;20049;-81
2023/01/22 01:08:01;;;;;;;29.58;14.30;;;;;;;;;;5016864;28;20095;-81
2023/01/22 01:10:27;;;;;;;33.10;14.53;;;-1.40;99.90;;;;;;5017395;28;20453;-81
2023/01/22 01:12:52;;;;;;;28.42;14.23;;;-1.60;99.90;;;;;;5001217;28;20053;-80
2023/01/22 01:15:18;;;;;;;29.52;14.70;;;-2.20;99.90;;;;;;5000783;28;20044;-82
2023/01/22 01:17:45;;;;;;;28.70;14.90;;;0.60;99.90;;;;;;5017293;28;20046;-81
2023/01/22 01:20:11;;;;;;;31.77;15.52;;;-1.50;99.90;;;;;;5034553;28;20041;-82
2023/01/22 01:22:37;;;;;;;28.87;13.27;;;-1.50;99.90;;;;;;5034274;28;20091;-81
2023/01/22 01:25:02;;;;;;;27.85;13.38;;;-1.80;99.90;;;;;;5034400;28;20041;-82
2023/01/22 01:27:30;;;;;;;25.35;13.98;;;-1.50;99.90;;;;;;5034588;28;20046;-82
2023/01/22 01:29:56;;;;;;;27.27;14.00;;;-2.10;99.90;;;;;;5016813;28;20128;-81
2023/01/22 01:32:23;;;;;;;30.23;15.77;;;-1.50;99.90;;;;;;5016872;28;20406;-82
2023/01/22 01:34:48;;;;;;;27.65;13.85;;;-1.50;99.90;;;;;;5017273;28;20038;-81
2023/01/22 01:37:15;;;;;;;26.08;14.25;;;-0.60;99.90;;;;;;5016611;28;20444;-82
2023/01/22 01:39:40;;;;;;;28.97;14.67;;;-1.40;99.90;;;;;;5016707;28;20059;-80
2023/01/22 01:42:06;;;;;;;26.02;13.20;;;-1.30;99.90;;;;;;5016593;28;20768;-80
2023/01/22 01:44:32;;;;;;;26.25;13.30;;;-1.30;99.90;;;;;;5016989;28;20398;-81
2023/01/22 01:47:25;;;;;;;29.23;13.77;;;-1.20;99.90;;;;;;5017100;28;20077;-81
2023/01/22 01:49:52;;;;;;;28.58;14.50;;;-0.20;99.90;;;;;;5034178;28;20048;-81
2023/01/22 01:52:19;;;;;;;27.85;14.13;;;-1.20;99.90;;;;;;5016313;28;20078;-81
2023/01/22 01:54:50;;;;;;;25.58;13.45;;;-0.90;99.90;;;;;;5016618;28;20045;-82
2023/01/22 01:57:20;;;;;;;27.95;13.05;;;-1.00;99.90;;;;;;5000388;28;20140;-82
2023/01/22 01:59:47;;;;;;;25.02;13.10;;;-1.00;99.90;;;;;;5000573;28;20084;-81
2023/01/22 02:02:13;;;;;;;;;;;-1.20;99.90;;;;;;5034368;28;20049;-81
2023/01/22 02:04:39;;;;;;;20.98;12.25;;;-0.90;99.90;;;;;;5033515;28;19921;-82
2023/01/22 02:07:05;;;;;;;24.25;12.43;;;-0.90;99.90;;;;;;5033806;28;20115;-83
2023/01/22 02:09:31;;;;;;;26.07;12.93;;;-0.80;99.90;;;;;;5033891;28;20486;-82
2023/01/22 02:11:57;;;;;;;22.35;11.65;;;-0.80;99.90;;;;;;5033778;28;20319;-81
2023/01/22 02:14:30;;;;;;;20.35;10.93;;;-0.80;99.90;;;;;;4999962;28;20107;-81
2023/01/22 02:17:11;;;;;;;19.80;10.90;;;-0.70;99.90;;;;;;5016189;28;20041;-82
2023/01/22 02:19:38;;;;;;;19.92;10.38;;;-0.70;99.90;;;;;;5015899;28;20041;-82
2023/01/22 02:22:16;;;;;;;23.90;11.48;;;-0.60;99.90;;;;;;5033789;28;20501;-82
2023/01/22 02:24:42;;;;;;;20.77;10.55;;;-0.50;99.90;;;;;;5016008;28;20434;-82
2023/01/22 02:27:07;;;;;;;21.20;10.70;;;-0.30;99.90;;;;;;5016358;28;20088;-80
2023/01/22 02:29:33;;;;;;;18.52;9.80;;;-0.50;99.90;;;;;;5016107;28;20037;-81
2023/01/22 02:31:59;;;;;;;15.88;9.70;;;0.00;99.90;;;;;;5015906;28;20108;-81
2023/01/22 02:34:24;;;;;;;14.38;8.73;;;-0.70;99.90;;;;;;5015843;28;20041;-80
2023/01/22 02:36:50;;;;;;;14.18;9.00;;;-0.40;99.90;;;;;;5015651;28;20081;-81
2023/01/22 02:39:16;;;;;;;13.80;8.52;;;-0.40;99.90;;;;;;5033322;28;20057;-82
2023/01/22 02:41:42;;;;;;;15.45;8.32;;;-0.30;99.90;;;;;;5033301;28;20042;-81
2023/01/22 02:44:07;;;;;;;17.27;8.70;;;-0.30;99.90;;;;;;5033391;28;20045;-81
2023/01/22 02:46:34;;;;;;;16.70;9.35;;;0.40;99.90;;;;;;5015832;28;20080;-83
2023/01/22 02:48:59;;;;;;;16.45;8.55;;;-0.30;99.90;;;;;;4999328;28;20053;-82
2023/01/22 02:51:25;;;;;;;18.55;8.80;;;-0.20;99.90;;;;;;5033309;28;20053;-81
2023/01/22 02:53:52;;;;;;;16.17;8.52;;;-0.20;99.90;;;;;;5015545;28;20474;-82
2023/01/22 02:56:19;;;;;;;15.65;9.45;;;-0.30;99.90;;;;;;5015846;28;20045;-82
2023/01/22 02:58:44;;;;;;;14.60;8.32;;;0.10;99.90;;;;;;4999270;28;20447;-82
2023/01/22 03:01:19;;;;;;;11.45;7.80;;;-0.20;99.90;;;;;;5033085;28;20077;-81
2023/01/22 03:03:49;;;;;;;13.13;8.40;;;0.40;99.90;;;;;;5015578;28;20041;-81
2023/01/22 03:06:20;;;;;;;14.18;8.77;;;-0.20;99.90;;;;;;5033187;28;20052;-81
2023/01/22 03:08:56;;;;;;;13.00;8.25;;;-0.10;99.90;;;;;;5033182;28;20049;-81
2023/01/22 03:11:24;;;;;;;12.60;7.95;;;0.60;99.90;;;;;;5033198;28;20050;-82
2023/01/22 03:22:07;;;;;;;12.38;7.78;;;-0.10;99.90;;;;;;5036760;28;20049;-81
2023/01/22 03:24:32;;;;;;;12.82;8.30;;;0.70;99.90;;;;;;5019368;28;20058;-81
2023/01/22 03:26:58;;;;;;;16.40;7.60;;;0.00;99.90;;;;;;5019371;28;20124;-82
2023/01/22 03:29:23;;;;;;;12.70;8.38;;;0.50;99.90;;;;;;5003368;28;20041;-81
2023/01/22 03:31:49;;;;;;;15.30;8.35;;;-0.10;99.90;;;;;;5018757;28;20044;-82
2023/01/22 03:34:16;;;;;;;12.38;7.72;;;0.00;99.90;;;;;;5003089;28;20049;-82
2023/01/22 03:36:42;;;;;;;;;;;0.50;99.90;;;;;;5018989;28;20494;-81
2023/01/22 03:39:08;;;;;;;10.38;7.10;;;0.00;99.90;;;;;;5019092;28;19975;-81
2023/01/22 03:41:33;;;;;;;13.18;7.57;;;0.00;99.90;;;;;;5018407;28;20096;-81
2023/01/22 03:44:00;;;;;;;11.07;6.97;;;0.20;99.90;;;;;;5036476;28;20084;-81
2023/01/22 03:46:26;;;;;;;8.55;6.57;;;0.00;99.90;;;;;;5036465;28;20437;-80
2023/01/22 03:48:52;;;;;;;12.70;6.68;;;0.00;99.90;;;;;;5018946;28;20056;-81
2023/01/22 03:51:19;;;;;;;11.87;7.43;;;0.00;99.90;;;;;;5018370;28;20390;-80
2023/01/22 03:53:45;;;;;;;10.15;6.90;;;0.70;99.90;;;;;;5018685;28;20045;-81
2023/01/22 03:56:13;;;;;;;10.73;6.80;;;0.50;99.90;;;;;;5036750;28;20394;-81
2023/01/22 03:58:39;;;;;;;14.45;7.57;;;0.10;99.90;;;;;;5036434;28;20046;-82
2023/01/22 04:01:08;;;;;;;11.52;7.38;;;0.00;99.90;;;;;;5018372;28;20041;-81
2023/01/22 04:03:34;;;;;;;11.00;6.82;;;0.00;99.90;;;;;;5018604;28;20052;-82
2023/01/22 04:06:00;;;;;;;8.43;6.47;;;0.00;99.90;;;;;;5035995;28;20037;-82
2023/01/22 04:08:27;;;;;;;13.40;7.22;;;-0.10;99.90;;;;;;5018629;28;20446;-82
2023/01/22 04:10:54;;;;;;;10.82;7.05;;;0.10;99.90;;;;;;5035817;28;20053;-82
2023/01/22 04:13:19;;;;;;;11.35;7.55;;;0.60;99.90;;;;;;5035715;28;20041;-82
2023/01/22 04:15:45;;;;;;;12.18;7.07;;;0.10;99.90;;;;;;5018272;28;20049;-80
2023/01/22 04:18:11;;;;;;;15.07;7.50;;;0.50;99.90;;;;;;5018283;28;20049;-82
2023/01/22 04:20:37;;;;;;;9.73;6.87;;;0.10;99.90;;;;;;5017836;28;20099;-81
2023/01/22 04:23:03;;;;;;;10.68;7.60;;;0.10;99.90;;;;;;5035684;28;20387;-82
2023/01/22 04:25:29;;;;;;;10.02;7.25;;;0.10;99.90;;;;;;5018192;28;20124;-81
2023/01/22 04:27:54;;;;;;;11.15;6.55;;;0.10;99.90;;;;;;5017863;28;20045;-81
2023/01/22 04:30:20;;;;;;;10.23;6.60;;;0.20;99.90;;;;;;5035676;28;20145;-83
2023/01/22 04:32:45;;;;;;;9.20;6.93;;;0.10;99.90;;;;;;5018028;28;20049;-81
2023/01/22 04:35:11;;;;;;;12.55;7.82;;;0.10;99.90;;;;;;5001610;28;20493;-82
2023/01/22 04:37:37;;;;;;;10.23;7.35;;;0.10;99.90;;;;;;5035290;28;20129;-82
2023/01/22 04:40:04;;;;;;;9.93;7.10;;;0.10;99.90;;;;;;5018082;28;20053;-82
2023/01/22 04:42:30;;;;;;;;;;;0.10;99.90;;;;;;5001813;28;20037;-81
2023/01/22 04:44:56;;;;;;;9.13;7.18;;;0.10;99.90;;;;;;5017997;28;20349;-81
2023/01/22 04:47:22;;;;;;;12.93;7.28;;;0.00;99.90;;;;;;5017958;28;20048;-81
2023/01/22 04:49:47;;;;;;;14.40;8.10;;;0.00;99.90;;;;;;5035464;28;20045;-82
2023/01/22 04:52:13;;;;;;;9.32;7.70;;;0.70;99.90;;;;;;5017713;28;20184;-82
2023/01/22 04:54:38;;;;;;;10.43;7.57;;;0.20;99.90;;;;;;5001654;28;20504;-82
2023/01/22 04:57:04;;;;;;;11.40;7.70;;;0.00;99.90;;;;;;5001493;28;20049;-80
2023/01/22 04:59:30;;;;;;;12.77;7.78;;;0.10;99.90;;;;;;5001413;28;20136;-80
2023/01/22 05:01:55;;;;;;;9.75;7.47;;;0.10;99.90;;;;;;5017345;28;20064;-82
2023/01/22 05:04:22;;;;;;;9.18;7.45;;;0.10;99.90;;;;;;5001157;28;20076;-81
2023/01/22 05:06:48;;;;;;;10.35;7.53;;;1.00;99.90;;;;;;5017270;28;20072;-80
2023/01/22 05:09:14;;;;;;;9.38;7.20;;;0.40;99.90;;;;;;5017350;28;20474;-83
2023/01/22 05:11:40;;;;;;;9.68;6.82;;;0.40;99.90;;;;;;5034793;28;20084;-81
2023/01/22 05:14:06;;;;;;;7.50;6.30;;;0.60;99.90;;;;;;5017342;28;20082;-81
2023/01/22 05:16:31;;;;;;;8.25;6.15;;;0.10;99.90;;;;;;5017212;28;20537;-82
2023/01/22 05:18:57;;;;;;;8.15;6.38;;;0.00;99.90;;;;;;5000734;28;20394;-82
2023/01/22 05:21:23;;;;;;;8.02;6.30;;;0.00;99.90;;;;;;5016884;28;20049;-81
2023/01/22 05:23:48;;;;;;;7.82;6.68;;;0.00;99.90;;;;;;5000826;28;20390;-81
2023/01/22 05:26:14;;;;;;;10.00;6.43;;;0.40;99.90;;;;;;5034415;28;20045;-82
2023/01/22 05:28:39;;;;;;;7.45;6.10;;;0.00;99.90;;;;;;5034262;28;20049;-82
2023/01/22 05:31:05;;;;;;;8.15;6.45;;;0.10;99.90;;;;;;5016813;28;20378;-81
2023/01/22 05:33:31;;;;;;;10.52;6.03;;;-0.30;99.90;;;;;;5016838;28;20518;-82
2023/01/22 05:35:58;;;;;;;8.52;6.35;;;0.00;99.90;;;;;;5016852;28;20041;-82
2023/01/22 05:38:24;;;;;;;7.93;5.10;;;0.00;99.90;;;;;;5016265;28;20132;-81
2023/01/22 05:40:50;;;;;;;6.97;5.93;;;0.00;99.90;;;;;;5034242;28;20203;-81
2023/01/22 05:43:15;;;;;;;7.70;6.10;;;0.30;99.90;;;;;;5034606;28;20045;-81
2023/01/22 05:45:41;;;;;;;8.00;6.30;;;0.00;99.90;;;;;;5034153;28;20486;-80
2023/01/22 05:48:07;;;;;;;8.02;7.00;;;0.00;99.90;;;;;;5016771;28;20478;-82
2023/01/22 05:50:32;;;;;;;8.32;6.05;;;0.00;99.90;;;;;;5033946;28;20132;-81
2023/01/22 05:52:58;;;;;;;7.82;6.35;;;0.00;99.90;;;;;;5033949;28;20052;-81
2023/01/22 05:55:23;;;;;;;9.07;6.95;;;0.00;99.90;;;;;;5016789;28;20050;-81
2023/01/22 05:57:49;;;;;;;9.90;6.95;;;0.00;99.90;;;;;;5016704;28;20133;-81
2023/01/22 06:00:15;;;;;;;11.38;7.15;;;0.00;99.90;;;;;;5033875;28;20087;-82
2023/01/22 06:02:41;;;;;;;12.93;7.65;;;0.00;99.90;;;;;;5033762;28;20148;-83
2023/01/22 06:05:07;;;;;;;10.98;6.97;;;0.10;99.90;;;;;;5034118;28;20533;-81
2023/01/22 06:07:33;;;;;;;12.27;6.67;;;0.00;99.90;;;;;;5033889;28;20095;-82
2023/01/22 06:09:58;;;;;;;12.80;7.70;;;0.00;99.90;;;;;;5000130;28;20085;-81
2023/01/22 06:12:24;;;;;;;11.05;6.63;;;-0.10;99.90;;;;;;5016659;28;20053;-80
2023/01/22 06:14:49;;;;;;;8.25;7.28;;;0.50;99.90;;;;;;5033839;28;20512;-82
2023/01/22 06:17:15;;;;;;;10.50;6.78;;;0.70;99.90;;;;;;5033782;28;20045;-82
2023/01/22 06:19:41;;;;;;;12.20;7.22;;;0.10;99.90;;;;;;5033474;28;20049;-81
2023/01/22 06:22:07;;;;;;;8.90;7.28;;;0.00;99.90;;;;;;5033265;28;20084;-81
2023/01/22 06:24:32;;;;;;;11.38;6.55;;;0.30;99.90;;;;;;5033575;28;20120;-80
2023/01/22 06:26:58;;;;;;;12.38;7.05;;;0.10;99.90;;;;;;5033983;28;20096;-82
2023/01/22 06:29:23;;;;;;;11.18;6.95;;;0.10;99.90;;;;;;5015799;28;20509;-81
2023/01/22 06:31:49;;;;;;;11.88;7.03;;;0.10;99.90;;;;;;5015818;28;20084;-82
2023/01/22 06:34:15;;;;;;;7.95;6.35;;;0.10;99.90;;;;;;5033187;28;20042;-82
2023/01/22 06:36:41;;;;;;;9.27;6.47;;;1.00;99.90;;;;;;5033315;28;20445;-82
2023/01/22 06:39:06;;;;;;;14.27;7.20;;;0.30;99.90;;;;;;5033501;28;20050;-81
2023/01/22 06:41:32;;;;;;;8.10;7.13;;;0.10;99.90;;;;;;5033303;28;20490;-81
2023/01/22 06:43:58;;;;;;;8.68;7.53;;;0.70;99.90;;;;;;5033420;28;20088;-81
2023/01/22 06:46:23;;;;;;;8.95;6.68;;;0.00;99.90;;;;;;5015968;28;20431;-80
2023/01/22 06:48:49;;;;;;;7.95;6.25;;;0.50;99.90;;;;;;4999721;28;20049;-82
2023/01/22 06:51:14;;;;;;;7.90;5.40;;;0.00;99.90;;;;;;5017409;28;20038;-82
2023/01/22 06:53:40;;;;;;;9.48;6.25;;;-0.10;99.90;;;;;;5019744;28;20085;-83
2023/01/22 06:56:06;;;;;;;9.98;7.47;;;-0.20;99.90;;;;;;5019964;28;20042;-82
2023/01/22 06:58:31;;;;;;;9.95;5.88;;;-0.10;99.90;;;;;;5003869;28;20045;-82
2023/01/22 07:01:01;;;;;;;7.13;5.43;;;-0.20;99.90;;;;;;5003089;28;20474;-80
2023/01/22 07:03:27;;;;;;;10.35;6.95;;;-0.20;99.90;;;;;;5019650;28;20449;-81
2023/01/22 07:06:03;;;;;;;8.85;6.93;;;-0.30;99.90;;;;;;5019427;28;20053;-81
2023/01/22 07:08:31;;;;;;;9.18;6.75;;;-0.30;99.90;;;;;;5019520;28;20049;-81
2023/01/22 07:10:57;;;;;;;9.90;7.30;;;0.00;99.90;;;;;;5037354;28;20466;-81
2023/01/22 07:13:23;;;;;;;10.00;7.20;;;-0.70;99.90;;;;;;5036900;28;20056;-78
2023/01/22 07:15:49;;;;;;;9.32;6.43;;;-0.30;99.90;;;;;;5037197;28;20045;-83
2023/01/22 07:18:15;;;;;;;13.77;7.65;;;-0.30;99.90;;;;;;5036827;28;20508;-83
2023/01/22 07:20:41;;;;;;;11.57;7.75;;;-0.30;99.90;;;;;;5036728;28;20041;-82
2023/01/22 07:23:07;;;;;;;9.65;7.22;;;1.80;99.90;;;;;;5036775;28;20114;-81
2023/01/22 07:25:33;;;;;;;9.45;7.22;;;-0.20;99.90;;;;;;5019143;28;20056;-80
2023/01/22 07:28:03;;;;;;;7.78;5.68;;;-0.20;99.90;;;;;;5003832;28;20501;-79
2023/01/22 07:30:29;;;;;;;9.63;7.25;;;-0.20;99.90;;;;;;5036286;28;20187;-82
2023/01/22 07:33:02;;;;;;;11.18;7.70;;;-0.10;99.90;;;;;;5036477;28;20502;-84
2023/01/22 07:35:28;;;;;;;9.70;7.50;;;-0.10;99.90;;;;;;5019041;28;20038;-82
2023/01/22 07:37:56;;;;;;;8.95;7.30;;;-0.10;99.90;;;;;;5018593;28;20508;-84
2023/01/22 07:40:25;;;;;;;11.05;6.95;;;0.00;99.90;;;;;;5036588;28;20045;-84
2023/01/22 07:42:52;;;;;;;11.52;8.35;;;-0.10;99.90;;;;;;5018648;28;20072;-81
2023/01/22 07:45:18;;;;;;;11.63;7.00;;;0.90;99.90;;;;;;5036336;28;20478;-81
2023/01/22 07:47:59;;;;;;;9.83;7.00;;;0.80;99.90;;;;;;5036179;28;20132;-80
2023/01/22 07:50:30;;;;;;;9.90;6.93;;;0.00;99.90;;;;;;5018513;28;20129;-80
2023/01/22 07:52:56;;;;;;;10.73;7.80;;;-0.10;99.90;;;;;;5036135;28;20129;-79
2023/01/22 07:55:22;;;;;;;10.25;7.10;;;0.00;99.90;;;;;;5018568;28;20041;-81
2023/01/22 07:57:55;;;;;;;7.82;5.35;;;0.00;99.90;;;;;;5018507;28;20147;-81
2023/01/22 08:00:21;;;;;;;8.60;6.75;;;0.00;99.90;;;;;;5035963;28;20033;-82
2023/01/22 08:02:49;;;;;;;12.52;7.57;;;0.00;99.90;;;;;;5018150;28;20045;-83
2023/01/22 08:05:14;;;;;;;8.65;6.72;;;0.00;99.90;;;;;;5018481;28;20076;-90
2023/01/22 08:07:40;;;;;;;11.18;7.20;;;0.10;99.90;;;;;;5002743;28;20478;-81
2023/01/22 08:10:06;;;;;;;9.43;6.88;;;0.90;99.90;;;;;;5035872;28;20045;-81
2023/01/22 08:12:32;;;;;;;10.27;6.25;;;0.10;99.90;;;;;;5035910;28;20049;-85
2023/01/22 08:14:58;;;;;;;9.88;7.43;;;0.10;99.90;;;;;;5035770;28;20053;-82
2023/01/22 08:17:23;;;;;;;8.48;7.00;;;0.10;99.90;;;;;;5018148;28;20037;-82
2023/01/22 08:19:49;;;;;;;12.60;7.55;;;0.10;99.90;;;;;;5018555;28;20046;-80
2023/01/22 08:22:14;;;;;;;9.70;6.80;;;0.10;99.90;;;;;;5018623;28;20041;-80
2023/01/22 08:24:41;;;;;;;8.48;6.43;;;0.10;99.90;;;;;;5035989;28;20478;-85
2023/01/22 08:27:07;;;;;;;10.70;6.55;;;0.10;99.90;;;;;;5018047;28;20049;-86
2023/01/22 08:29:32;;;;;;;11.90;6.40;;;0.20;99.90;;;;;;5018365;28;20052;-78
2023/01/22 08:31:58;;;;;;;10.05;7.10;;;0.20;99.90;;;;;;5035796;28;20080;-80
2023/01/22 08:34:23;;;;;;;8.18;6.68;;;0.40;99.90;;;;;;5035850;28;20420;-81
2023/01/22 08:36:49;;;;;;;8.77;6.95;;;0.20;99.90;;;;;;5015090;28;20073;-78
2023/01/22 08:39:15;;;;;;;9.50;7.85;;;0.20;99.90;;;;;;5033890;28;20547;-80
2023/01/22 08:41:40;;;;;;;13.73;7.07;;;0.30;99.90;;;;;;5034368;28;20047;-78
2023/01/22 08:44:07;;;;;;;10.90;7.68;;;0.40;99.90;;;;;;5017008;28;20084;-79
2023/01/22 08:46:34;;;;;;;9.47;7.80;;;0.30;99.90;;;;;;5034161;28;20493;-79
2023/01/22 08:49:02;;;;;;;9.98;8.38;;;0.30;99.90;;;;;;5017693;28;20087;-80
2023/01/22 08:51:27;;;;;;;11.27;8.52;;;0.30;99.90;;;;;;5035172;28;20449;-78
2023/01/22 08:53:53;;;;;;;10.38;7.63;;;0.30;99.90;;;;;;5035058;28;20049;-80
2023/01/22 08:56:19;;;;;;;15.60;7.88;;;0.40;99.90;;;;;;5035144;28;20171;-79
2023/01/22 08:58:48;;;;;;;8.93;7.30;;;0.40;99.90;;;;;;5034918;28;20037;-79
2023/01/22 09:01:16;;;;;;;9.70;8.00;;;0.70;99.90;;;;;;5017718;28;20382;-79
2023/01/22 09:03:42;;;;;;;9.50;7.68;;;0.40;99.90;;;;;;5017919;28;20413;-79
2023/01/22 09:06:08;;;;;;;12.47;8.03;;;0.80;99.90;;;;;;5034887;28;20433;-78
2023/01/22 09:08:33;;;;;;;10.52;7.20;;;0.40;99.90;;;;;;5034998;28;20280;-80
2023/01/22 09:10:59;;;;;;;11.75;7.53;;;0.40;99.90;;;;;;5034706;28;20044;-79
2023/01/22 09:13:24;;;;;;;11.93;8.45;;;0.70;99.90;;;;;;5033863;28;20053;-80
2023/01/22 09:15:50;;;;;;;10.60;7.75;;;0.50;99.90;;;;;;5017567;28;20128;-79
2023/01/22 09:18:15;;;;;;;13.00;8.02;;;0.50;99.90;;;;;;5034634;28;20052;-79
2023/01/22 09:20:43;;;;;;;10.80;8.05;;;0.50;99.90;;;;;;5034631;28;20041;-78
2023/01/22 09:23:09;;;;;;;10.65;7.82;;;0.50;99.90;;;;;;5034570;28;20049;-80
2023/01/22 09:25:35;;;;;;;10.43;7.93;;;0.60;99.90;;;;;;5034533;28;20509;-80
2023/01/22 09:28:03;;;;;;;12.82;7.47;;;0.60;99.90;;;;;;5016807;28;20091;-80
2023/01/22 09:30:29;;;;;;;12.18;8.98;;;0.60;99.90;;;;;;5034807;28;20067;-80
2023/01/22 09:32:55;;;;;;;12.10;8.10;;;0.70;99.90;;;;;;5034948;28;20037;-79
2023/01/22 09:35:20;;;;;;;12.57;8.25;;;3.00;99.90;;;;;;5034669;28;20099;-78
2023/01/22 09:37:46;;;;;;;10.27;8.07;;;2.10;99.90;;;;;;5034322;28;20482;-80
2023/01/22 09:40:38;;;;;;;14.38;7.97;;;1.50;99.90;;;;;;5034205;28;20056;-80
2023/01/22 09:43:09;;;;;;;11.45;7.28;;;0.70;99.90;;;;;;5034245;28;20060;-79
2023/01/22 09:45:37;;;;;;;14.10;7.93;;;0.70;99.90;;;;;;5034270;28;20049;-80
2023/01/22 09:48:08;;;;;;;12.85;8.27;;;0.80;99.90;;;;;;4999834;28;20542;-79
2023/01/22 09:50:34;;;;;;;15.50;8.70;;;0.70;99.90;;;;;;5033787;28;20049;-80
2023/01/22 09:53:05;;;;;;;10.77;7.25;;;0.70;99.90;;;;;;5016567;28;20045;-80
2023/01/22 09:55:37;;;;;;;9.52;8.38;;;0.70;99.90;;;;;;5016828;28;20099;-79
2023/01/22 09:58:08;;;;;;;10.70;7.25;;;0.80;99.90;;;;;;5016729;28;20053;-80
2023/01/22 10:00:46;;;;;;;11.73;7.43;;;1.00;99.90;;;;;;5033872;28;20081;-80
2023/01/22 10:03:23;;;;;;;11.00;7.90;;;0.70;99.90;;;;;;5034035;28;20050;-79
2023/01/22 10:05:56;;;;;;;11.82;7.75;;;0.70;99.90;;;;;;5016450;28;20045;-79
2023/01/22 10:08:26;;;;;;;10.30;7.47;;;0.70;99.90;;;;;;5016153;28;20037;-79
2023/01/22 10:10:52;;;;;;;12.00;9.10;;;1.20;99.90;;;;;;5033750;28;20041;-78
2023/01/22 10:13:21;;;;;;;9.17;7.23;;;0.70;99.90;;;;;;5033709;28;20057;-80
2023/01/22 10:15:49;;;;;;;11.10;7.82;;;0.70;99.90;;;;;;5016044;28;20052;-79
2023/01/22 10:18:30;;;;;;;10.73;7.75;;;0.90;99.90;;;;;;5033614;28;20111;-79
2023/01/22 10:20:59;;;;;;;11.23;7.68;;;0.80;99.90;;;;;;5033338;28;20478;-80
2023/01/22 10:23:25;;;;;;;11.98;7.30;;;0.80;99.90;;;;;;5033617;28;20037;-79
2023/01/22 10:26:11;;;;;;;8.98;6.00;;;0.90;99.90;;;;;;5033488;28;20389;-78
2023/01/22 10:28:41;;;;;;;13.90;7.97;;;0.90;99.90;;;;;;5016156;28;20128;-79
2023/01/22 10:31:41;;;;;;;10.15;7.07;;;0.80;99.90;;;;;;5033912;28;20041;-78
2023/01/22 10:34:15;;;;;;;10.27;7.13;;;0.90;99.90;;;;;;5033576;28;20116;-80
2023/01/22 10:36:49;;;;;;;11.27;7.60;;;0.90;99.90;;;;;;5033519;28;20057;-80
2023/01/22 10:39:16;;;;;;;9.35;6.70;;;0.90;99.90;;;;;;5033481;28;20045;-80
2023/01/22 10:41:43;;;;;;;9.32;7.43;;;1.00;99.90;;;;;;5033339;28;20044;-80
2023/01/22 10:44:15;;;;;;;11.63;7.72;;;0.90;99.90;;;;;;5033401;28;20377;-79
2023/01/22 10:46:40;;;;;;;10.82;7.90;;;0.90;99.90;;;;;;5033680;28;20060;-80
2023/01/22 10:49:12;;;;;;;12.45;7.75;;;0.90;99.90;;;;;;5015659;28;20398;-79
2023/01/22 10:51:41;;;;;;;10.15;7.55;;;1.90;99.90;;;;;;5008314;28;20049;-81
2023/01/22 10:54:19;;;;;;;9.73;6.43;;;1.00;99.90;;;;;;5033616;28;20053;-80
2023/01/22 10:56:46;;;;;;;;;;;1.00;99.90;;;;;;5033913;28;20056;-82
2023/01/22 10:59:25;;;;;;;11.68;7.35;;;1.10;99.90;;;;;;5033525;28;20016;-80
2023/01/22 11:02:17;;;;;;;11.30;7.93;;;1.80;99.90;;;;;;5033484;28;20045;-80
2023/01/22 11:04:43;;;;;;;13.13;7.72;;;1.00;99.90;;;;;;5002228;28;20060;-79
2023/01/22 11:07:20;;;;;;;13.63;8.43;;;1.00;99.90;;;;;;5032973;28;20045;-83
2023/01/22 11:09:52;;;;;;;13.07;8.35;;;1.00;99.90;;;;;;5015572;28;20049;-78
2023/01/22 11:12:49;;;;;;;13.43;8.38;;;1.30;99.90;;;;;;5015509;28;20126;-80
2023/01/22 11:15:20;;;;;;;13.10;8.15;;;1.10;99.90;;;;;;5032237;28;20195;-80
2023/01/22 11:17:50;;;;;;;11.45;8.05;;;1.00;99.90;;;;;;5033058;28;20099;-80
2023/01/22 11:20:30;;;;;;;13.93;8.65;;;1.00;99.90;;;;;;5032936;28;20049;-79
2023/01/22 11:23:08;;;;;;;12.30;7.95;;;1.00;99.90;;;;;;5015220;28;20049;-80
2023/01/22 11:25:52;;;;;;;12.30;8.00;;;1.10;99.90;;;;;;5015760;28;20064;-82
2023/01/22 11:29:03;;;;;;;12.43;8.27;;;1.10;99.90;;;;;;5033306;28;20472;-80
2023/01/22 11:32:01;;;;;;;10.77;8.30;;;1.20;99.90;;;;;;4995192;28;20136;-81
2023/01/22 11:34:50;;;;;;;11.15;8.38;;;1.20;99.90;;;;;;5032967;28;20099;-81
2023/01/22 11:38:00;;;;;;;12.05;8.18;;;1.20;99.90;;;;;;5034705;28;20058;-80
2023/01/22 11:40:29;;;;;;;10.82;7.10;;;1.20;99.90;;;;;;4994659;28;20050;-80
2023/01/22 11:43:25;;;;;;;12.95;8.95;;;1.20;99.90;;;;;;5036537;28;20119;-81
2023/01/22 11:46:28;;;;;;;11.60;8.27;;;1.20;99.90;;;;;;5036463;28;20041;-79
2023/01/22 11:49:31;;;;;;;12.57;8.70;;;1.30;99.90;;;;;;5019155;28;20046;-81
2023/01/22 11:52:25;;;;;;;15.25;10.05;;;1.40;99.90;;;;;;5036600;28;20460;-84
2023/01/22 11:55:27;;;;;;;13.90;9.13;;;1.40;99.90;;;;;;5019486;28;20053;-82
2023/01/22 11:58:20;;;;;;;13.18;9.35;;;1.40;99.90;;;;;;5002713;28;20057;-86
2023/01/22 12:00:57;;;;;;;13.05;8.65;;;2.00;99.90;;;;;;5018265;28;20067;-84
2023/01/22 12:03:42;;;;;;;15.45;9.73;;;1.30;99.90;;;;;;5018858;28;20445;-81
2023/01/22 12:06:52;;;;;;;11.45;7.75;;;1.40;99.90;;;;;;5018523;28;20144;-81
2023/01/22 12:09:33;;;;;;;10.32;7.75;;;1.40;99.90;;;;;;4936558;29;20447;-81
2023/01/22 12:12:11;;;;;;;12.50;8.52;;;1.40;99.90;;;;;;5015049;28;20437;-80
2023/01/22 12:14:59;;;;;;;;;;;1.40;99.90;;;;;;5018609;28;20076;-80
2023/01/22 12:17:40;;;;;;;16.13;8.43;;;1.30;99.90;;;;;;5018210;28;19924;-81
2023/01/22 12:20:29;;;;;;;12.18;8.40;;;1.40;99.90;;;;;;5035340;28;20280;-80
2023/01/22 12:23:12;;;;;;;15.48;9.05;;;1.40;99.90;;;;;;5018356;28;20045;-81
2023/01/22 12:25:49;;;;;;;16.33;9.95;;;1.40;99.90;;;;;;5035761;28;20175;-80
2023/01/22 12:29:13;;;;;;;16.20;9.10;;;1.40;99.90;;;;;;5035719;28;20064;-82
2023/01/22 12:31:48;;;;;;;16.60;8.20;;;1.40;99.90;;;;;;4936307;29;20492;-81
2023/01/22 12:34:24;;;;;;;13.60;8.50;;;1.40;99.90;;;;;;5014865;28;20120;-82
2023/01/22 12:36:52;;;;;;;13.52;8.23;;;1.40;99.90;;;;;;5017646;28;20506;-82
2023/01/22 12:39:38;;;;;;;15.55;9.98;;;2.30;99.90;;;;;;5035347;28;20072;-81
2023/01/22 12:42:21;;;;;;;14.60;8.35;;;1.50;99.90;;;;;;5016054;28;20498;-83
2023/01/22 12:45:05;;;;;;;16.83;9.30;;;1.50;99.90;;;;;;5018174;28;20088;-80
2023/01/22 12:48:03;;;;;;;15.98;9.77;;;1.50;99.90;;;;;;5034901;28;20053;-85
2023/01/22 12:50:28;;;;;;;13.30;9.05;;;1.50;99.90;;;;;;5001296;28;20072;-85
2023/01/22 12:53:04;;;;;;;11.35;7.95;;;1.40;99.90;;;;;;5017416;28;20045;-80
2023/01/22 12:55:36;;;;;;;11.35;7.30;;;1.40;99.90;;;;;;5035149;28;20128;-81
2023/01/22 12:58:03;;;;;;;10.90;6.65;;;1.40;99.90;;;;;;5035354;28;20041;-82
2023/01/22 13:00:30;;;;;;;13.65;7.72;;;1.40;99.90;;;;;;5034983;28;20045;-83
2023/01/22 13:02:56;;;;;;;11.18;7.15;;;1.50;99.90;;;;;;5001333;28;20049;-80
2023/01/22 13:05:25;;;;;;;13.38;7.80;;;1.50;99.90;;;;;;5034937;28;20449;-80
2023/01/22 13:08:05;;;;;;;11.48;7.18;;;1.40;99.90;;;;;;5034904;28;20088;-80
2023/01/22 13:10:34;;;;;;;14.18;8.57;;;1.50;99.90;;;;;;5034867;28;20052;-81